Marine Hornbill — 3FEF3 — position and weather

sailwx.info

Track history (hours):
 
Tides and Currents Weather Stations Pressure Air Temp Water Temp Dewpoint Dewpoint Depression Visibility Wind Speed Wind Dir Waves Ship Positions

Marine Hornbill

Last reported at 2016-Aug-14 02:32 UTC. Time now 2016-Aug-28 00:28 UTC.
Position N 34°46' E 139°47'.
Warning: this ship's position is 13 days out of date.

Length 116 m; draft 8.1 m.

Type: Cargo ship. MMSI: 357869000.

Date/timePositionNaut miles runAvg speedWind from/ knotsBaromVisibWave heightAir tempDewpointWater temp
2016-Aug-14 02:32N 34°46' E 139°47'1313.3
2016-Aug-14 01:33N 34°52' E 140°01'1212.0
2016-Aug-14 00:33N 34°59' E 140°13'1110.7
2016-Aug-13 23:32N 35°05' E 140°25'1010.7
2016-Aug-13 22:33N 35°12' E 140°35'1211.8
2016-Aug-13 21:33N 35°21' E 140°44'1212.3
2016-Aug-13 20:33N 35°32' E 140°51'1212.4
2016-Aug-13 19:33N 35°42' E 140°58'1110.2
2016-Aug-13 18:31N 35°53' E 140°55'1111.5
2016-Aug-13 17:33N 35°58' E 140°43'4 3.2
2016-Aug-13 16:23N 35°55' E 140°40'0 0.0
2016-Aug-13 15:29N 35°55' E 140°40'0 0.0
2016-Aug-13 14:29N 35°55' E 140°40'0 0.0
2016-Aug-13 13:29N 35°55' E 140°40'0 0.0
2016-Aug-13 10:23N 35°55' E 140°40'0 0.0
2016-Aug-13 09:23N 35°55' E 140°40'0 0.0
2016-Aug-13 08:29N 35°55' E 140°40'0 0.0
2016-Aug-13 07:29N 35°55' E 140°40'0 0.0
2016-Aug-13 05:23N 35°55' E 140°40'0 0.0
2016-Aug-13 04:23N 35°55' E 140°40'0 0.0
2016-Aug-13 02:29N 35°55' E 140°40'0 0.0
2016-Aug-13 01:29N 35°55' E 140°40'0 0.0
2016-Aug-13 00:29N 35°55' E 140°40'0 0.0
2016-Aug-12 23:29N 35°55' E 140°40'0 0.0
2016-Aug-12 22:23N 35°55' E 140°40'0 0.0
2016-Aug-12 21:29N 35°55' E 140°40'0 0.0
2016-Aug-12 20:26N 35°55' E 140°40'0 0.0
2016-Aug-12 19:29N 35°55' E 140°40'0 0.0
2016-Aug-12 18:32N 35°55' E 140°40'0 0.0
2016-Aug-12 17:11N 35°55' E 140°40'0 0.0
2016-Aug-12 16:29N 35°55' E 140°40'0 0.0
2016-Aug-12 15:29N 35°55' E 140°40'0 0.0
2016-Aug-12 14:08N 35°55' E 140°40'0 0.0
2016-Aug-12 13:29N 35°55' E 140°40'0 0.0
2016-Aug-12 12:17N 35°55' E 140°40'0 0.0
2016-Aug-12 10:29N 35°55' E 140°40'0 0.0
2016-Aug-12 09:29N 35°55' E 140°40'0 0.0
2016-Aug-12 08:32N 35°55' E 140°40'0 0.0
2016-Aug-12 07:32N 35°55' E 140°40'0 0.0
2016-Aug-12 06:29N 35°55' E 140°40'0 0.0
2016-Aug-12 05:32N 35°55' E 140°40'0 0.0
2016-Aug-12 04:29N 35°55' E 140°40'0 0.0
2016-Aug-12 03:32N 35°55' E 140°40'0 0.0
2016-Aug-12 02:26N 35°55' E 140°40'0 0.0
2016-Aug-12 01:29N 35°55' E 140°40'0 0.0
2016-Aug-12 00:29N 35°55' E 140°40'0 0.0
2016-Aug-11 23:26N 35°55' E 140°40'0 0.0
2016-Aug-11 22:29N 35°55' E 140°40'0 0.0
2016-Aug-11 21:32N 35°55' E 140°40'0 0.0
2016-Aug-11 20:32N 35°55' E 140°40'0 0.0
2016-Aug-11 19:29N 35°55' E 140°40'0 0.0
2016-Aug-11 18:29N 35°55' E 140°40'0 0.0
2016-Aug-11 17:29N 35°55' E 140°40'0 0.0
2016-Aug-11 16:32N 35°55' E 140°40'0 0.0
2016-Aug-11 15:29N 35°55' E 140°40'0 0.0
2016-Aug-11 14:26N 35°55' E 140°40'0 0.0
2016-Aug-11 13:29N 35°55' E 140°40'0 0.0
2016-Aug-11 12:32N 35°55' E 140°40'0 0.0
2016-Aug-11 11:32N 35°55' E 140°40'0 0.0
2016-Aug-11 10:08N 35°55' E 140°40'0 0.0
2016-Aug-11 09:26N 35°55' E 140°40'0 0.0
2016-Aug-11 08:32N 35°55' E 140°40'0 0.0
2016-Aug-11 06:14N 35°55' E 140°40'0 0.0
2016-Aug-11 05:32N 35°55' E 140°40'0 0.0
2016-Aug-11 04:14N 35°55' E 140°40'0 0.0
2016-Aug-11 03:23N 35°55' E 140°40'0 0.0
2016-Aug-11 02:29N 35°55' E 140°40'1 1.2
2016-Aug-11 01:33N 35°55' E 140°42'6 5.8
2016-Aug-11 00:33N 35°59' E 140°47'1 0.7
2016-Aug-10 22:27N 35°58' E 140°48'0 0.0
2016-Aug-10 20:27N 35°58' E 140°48'0 0.0
2016-Aug-10 19:15N 35°58' E 140°48'0 0.0
2016-Aug-10 17:21N 35°58' E 140°48'0 0.0
2016-Aug-10 16:27N 35°58' E 140°48'0 0.0
2016-Aug-10 15:15N 35°58' E 140°48'0 0.0
2016-Aug-10 14:18N 35°58' E 140°48'0 0.0
2016-Aug-10 11:33N 35°58' E 140°48'0 0.0
2016-Aug-10 05:27N 35°58' E 140°48'0 0.0
2016-Aug-10 04:33N 35°58' E 140°48'0 0.0
2016-Aug-10 03:27N 35°58' E 140°48'0 0.0
2016-Aug-10 02:27N 35°58' E 140°48'0 0.0
2016-Aug-09 20:21N 35°58' E 140°48'0 0.0
2016-Aug-09 19:18N 35°58' E 140°48'0 0.0
2016-Aug-09 18:06N 35°58' E 140°48'0 0.1
2016-Aug-09 17:33N 35°58' E 140°48'0 0.0
2016-Aug-09 16:33N 35°58' E 140°48'0 0.1
2016-Aug-09 15:33N 35°58' E 140°49'9 8.7
2016-Aug-09 14:33N 35°51' E 140°54'1110.6
2016-Aug-09 13:33N 35°40' E 140°56'1211.9
2016-Aug-09 12:33N 35°29' E 140°50'1212.0
2016-Aug-09 11:33N 35°19' E 140°43'1312.5
2016-Aug-09 10:33N 35°10' E 140°31'1312.8
2016-Aug-09 09:32N 35°03' E 140°19'1212.5
2016-Aug-09 08:33N 34°56' E 140°06'1411.9
2016-Aug-09 07:22N 34°48' E 139°52'2312.5
2016-Aug-09 05:33N 34°38' E 139°27'1312.8
2016-Aug-09 04:32N 34°35' E 139°12'  
Track history (hours):
 
Tides and Currents Weather Stations Pressure Air Temp Water Temp Dewpoint Dewpoint Depression Visibility Wind Speed Wind Dir Waves Ship Positions

Marine Hornbill

Last reported at 2016-Aug-14 02:32 UTC. Time now 2016-Aug-28 00:28 UTC.
Position N 34°46' E 139°47'.
Warning: this ship's position is 13 days out of date.

Length 116 m; draft 8.1 m.

Type: Cargo ship. MMSI: 357869000.

Date/timePositionNaut miles runAvg speedWind from/ knotsBaromVisibWave heightAir tempDewpointWater temp
2016-Aug-14 02:32N 34°46' E 139°47'1313.3
2016-Aug-14 01:33N 34°52' E 140°01'1212.0
2016-Aug-14 00:33N 34°59' E 140°13'1110.7
2016-Aug-13 23:32N 35°05' E 140°25'1010.7
2016-Aug-13 22:33N 35°12' E 140°35'1211.8
2016-Aug-13 21:33N 35°21' E 140°44'1212.3
2016-Aug-13 20:33N 35°32' E 140°51'1212.4
2016-Aug-13 19:33N 35°42' E 140°58'1110.2
2016-Aug-13 18:31N 35°53' E 140°55'1111.5
2016-Aug-13 17:33N 35°58' E 140°43'4 3.2
2016-Aug-13 16:23N 35°55' E 140°40'0 0.0
2016-Aug-13 15:29N 35°55' E 140°40'0 0.0
2016-Aug-13 14:29N 35°55' E 140°40'0 0.0
2016-Aug-13 13:29N 35°55' E 140°40'0 0.0
2016-Aug-13 10:23N 35°55' E 140°40'0 0.0
2016-Aug-13 09:23N 35°55' E 140°40'0 0.0
2016-Aug-13 08:29N 35°55' E 140°40'0 0.0
2016-Aug-13 07:29N 35°55' E 140°40'0 0.0
2016-Aug-13 05:23N 35°55' E 140°40'0 0.0
2016-Aug-13 04:23N 35°55' E 140°40'0 0.0
2016-Aug-13 02:29N 35°55' E 140°40'0 0.0
2016-Aug-13 01:29N 35°55' E 140°40'0 0.0
2016-Aug-13 00:29N 35°55' E 140°40'0 0.0
2016-Aug-12 23:29N 35°55' E 140°40'0 0.0
2016-Aug-12 22:23N 35°55' E 140°40'0 0.0
2016-Aug-12 21:29N 35°55' E 140°40'0 0.0
2016-Aug-12 20:26N 35°55' E 140°40'0 0.0
2016-Aug-12 19:29N 35°55' E 140°40'0 0.0
2016-Aug-12 18:32N 35°55' E 140°40'0 0.0
2016-Aug-12 17:11N 35°55' E 140°40'0 0.0
2016-Aug-12 16:29N 35°55' E 140°40'0 0.0
2016-Aug-12 15:29N 35°55' E 140°40'0 0.0
2016-Aug-12 14:08N 35°55' E 140°40'0 0.0
2016-Aug-12 13:29N 35°55' E 140°40'0 0.0
2016-Aug-12 12:17N 35°55' E 140°40'0 0.0
2016-Aug-12 10:29N 35°55' E 140°40'0 0.0
2016-Aug-12 09:29N 35°55' E 140°40'0 0.0
2016-Aug-12 08:32N 35°55' E 140°40'0 0.0
2016-Aug-12 07:32N 35°55' E 140°40'0 0.0
2016-Aug-12 06:29N 35°55' E 140°40'0 0.0
2016-Aug-12 05:32N 35°55' E 140°40'0 0.0
2016-Aug-12 04:29N 35°55' E 140°40'0 0.0
2016-Aug-12 03:32N 35°55' E 140°40'0 0.0
2016-Aug-12 02:26N 35°55' E 140°40'0 0.0
2016-Aug-12 01:29N 35°55' E 140°40'0 0.0
2016-Aug-12 00:29N 35°55' E 140°40'0 0.0
2016-Aug-11 23:26N 35°55' E 140°40'0 0.0
2016-Aug-11 22:29N 35°55' E 140°40'0 0.0
2016-Aug-11 21:32N 35°55' E 140°40'0 0.0
2016-Aug-11 20:32N 35°55' E 140°40'0 0.0
2016-Aug-11 19:29N 35°55' E 140°40'0 0.0
2016-Aug-11 18:29N 35°55' E 140°40'0 0.0
2016-Aug-11 17:29N 35°55' E 140°40'0 0.0
2016-Aug-11 16:32N 35°55' E 140°40'0 0.0
2016-Aug-11 15:29N 35°55' E 140°40'0 0.0
2016-Aug-11 14:26N 35°55' E 140°40'0 0.0
2016-Aug-11 13:29N 35°55' E 140°40'0 0.0
2016-Aug-11 12:32N 35°55' E 140°40'0 0.0
2016-Aug-11 11:32N 35°55' E 140°40'0 0.0
2016-Aug-11 10:08N 35°55' E 140°40'0 0.0
2016-Aug-11 09:26N 35°55' E 140°40'0 0.0
2016-Aug-11 08:32N 35°55' E 140°40'0 0.0
2016-Aug-11 06:14N 35°55' E 140°40'0 0.0
2016-Aug-11 05:32N 35°55' E 140°40'0 0.0
2016-Aug-11 04:14N 35°55' E 140°40'0 0.0
2016-Aug-11 03:23N 35°55' E 140°40'0 0.0
2016-Aug-11 02:29N 35°55' E 140°40'1 1.2
2016-Aug-11 01:33N 35°55' E 140°42'6 5.8
2016-Aug-11 00:33N 35°59' E 140°47'1 0.7
2016-Aug-10 22:27N 35°58' E 140°48'0 0.0
2016-Aug-10 20:27N 35°58' E 140°48'0 0.0
2016-Aug-10 19:15N 35°58' E 140°48'0 0.0
2016-Aug-10 17:21N 35°58' E 140°48'0 0.0
2016-Aug-10 16:27N 35°58' E 140°48'0 0.0
2016-Aug-10 15:15N 35°58' E 140°48'0 0.0
2016-Aug-10 14:18N 35°58' E 140°48'0 0.0
2016-Aug-10 11:33N 35°58' E 140°48'0 0.0
2016-Aug-10 05:27N 35°58' E 140°48'0 0.0
2016-Aug-10 04:33N 35°58' E 140°48'0 0.0
2016-Aug-10 03:27N 35°58' E 140°48'0 0.0
2016-Aug-10 02:27N 35°58' E 140°48'0 0.0
2016-Aug-09 20:21N 35°58' E 140°48'0 0.0
2016-Aug-09 19:18N 35°58' E 140°48'0 0.0
2016-Aug-09 18:06N 35°58' E 140°48'0 0.1
2016-Aug-09 17:33N 35°58' E 140°48'0 0.0
2016-Aug-09 16:33N 35°58' E 140°48'0 0.1
2016-Aug-09 15:33N 35°58' E 140°49'9 8.7
2016-Aug-09 14:33N 35°51' E 140°54'1110.6
2016-Aug-09 13:33N 35°40' E 140°56'1211.9
2016-Aug-09 12:33N 35°29' E 140°50'1212.0
2016-Aug-09 11:33N 35°19' E 140°43'1312.5
2016-Aug-09 10:33N 35°10' E 140°31'1312.8
2016-Aug-09 09:32N 35°03' E 140°19'1212.5
2016-Aug-09 08:33N 34°56' E 140°06'1411.9
2016-Aug-09 07:22N 34°48' E 139°52'2312.5
2016-Aug-09 05:33N 34°38' E 139°27'1312.8
2016-Aug-09 04:32N 34°35' E 139°12'  

Dump ship's entire track history